Terminal Aerodrome Forecast
Issued by NWS Flagstaff, AZ

Home | Current Version | Previous Version | Text Only | Print | Product List | Glossary On
Versions: 1 2 3 4 5 6 7 8 9 10 11 12 13
879
FTUS45 KFGZ 261736
TAFINW
TAF
KINW 261736Z 2618/2718 29006KT P6SM FEW250
     FM262000 31009KT P6SM SCT250
     FM270200 24011KT P6SM BKN250=

USA.gov is the U.S. government's official web portal to all federal, state and local government web resources and services.